Time;durP1;ratioP1;P1;durP2;ratioP2;P2;SDS_P1;SDS_P2;PMS_P1;PMS_P2;Temp;Humidity;BMP_temperature;BMP_pressure;BME280_temperature;BME280_humidity;BME280_pressure;Samples;Min_cycle;Max_cycle;Signal;HPM_P1;HPM_P2
2023/08/17 00:00:26;;;;;;;6.00;4.80;;;18.80;99.90;;;;;;5017538;28;20221;-89
2023/08/17 00:02:52;;;;;;;6.43;5.10;;;18.80;99.90;;;;;;5017799;28;20191;-90
2023/08/17 00:05:18;;;;;;;8.73;5.50;;;18.80;99.90;;;;;;5017658;28;20176;-90
2023/08/17 00:07:44;;;;;;;10.55;5.68;;;18.70;99.90;;;;;;5017441;28;20533;-91
2023/08/17 00:10:09;;;;;;;9.80;5.70;;;18.60;99.90;;;;;;5017959;28;20188;-91
2023/08/17 00:12:35;;;;;;;7.10;5.45;;;18.50;99.90;;;;;;5017282;28;20206;-91
2023/08/17 00:15:01;;;;;;;14.57;5.70;;;18.50;99.90;;;;;;5034033;28;20179;-91
2023/08/17 00:17:27;;;;;;;13.98;6.13;;;18.40;99.90;;;;;;5019249;28;20536;-88
2023/08/17 00:19:52;;;;;;;11.40;5.38;;;18.40;99.90;;;;;;5032841;28;20661;-88
2023/08/17 00:22:30;;;;;;;11.55;5.85;;;18.30;99.90;;;;;;5032956;28;20207;-88
2023/08/17 00:24:56;;;;;;;12.98;5.97;;;18.20;99.90;;;;;;5015993;28;20258;-87
2023/08/17 00:27:22;;;;;;;11.38;6.03;;;18.10;99.90;;;;;;5017223;28;20281;-88
2023/08/17 00:29:48;;;;;;;10.30;5.82;;;17.90;99.90;;;;;;5015870;28;20198;-87
2023/08/17 00:32:13;;;;;;;11.05;6.00;;;17.80;99.90;;;;;;5032457;28;20684;-88
2023/08/17 00:34:39;;;;;;;13.02;5.93;;;17.70;99.90;;;;;;5015623;28;20262;-88
2023/08/17 00:37:05;;;;;;;9.57;6.05;;;17.60;99.90;;;;;;5016021;28;20176;-88
2023/08/17 00:39:30;;;;;;;14.27;6.43;;;17.60;99.90;;;;;;5016243;28;20183;-88
2023/08/17 00:41:56;;;;;;;13.77;6.25;;;17.50;99.90;;;;;;5016137;28;20544;-87
2023/08/17 00:44:22;;;;;;;10.43;6.05;;;17.40;99.90;;;;;;5032554;28;20183;-91
2023/08/17 00:46:48;;;;;;;13.18;6.90;;;17.30;99.90;;;;;;5017239;28;20192;-91
2023/08/17 00:49:14;;;;;;;11.57;6.30;;;17.30;99.90;;;;;;5016676;28;20184;-91
2023/08/17 00:51:46;;;;;;;10.40;6.25;;;17.30;99.90;;;;;;5015853;28;20215;-86
2023/08/17 00:54:12;;;;;;;14.45;5.97;;;17.30;99.90;;;;;;5016446;28;20685;-86
2023/08/17 00:56:38;;;;;;;9.55;6.40;;;17.30;99.90;;;;;;5015545;28;20653;-88
2023/08/17 00:59:04;;;;;;;9.32;5.80;;;17.30;99.90;;;;;;5014653;28;20191;-88
2023/08/17 01:01:30;;;;;;;9.43;5.75;;;17.30;99.90;;;;;;5014605;28;20210;-88
2023/08/17 01:03:55;;;;;;;11.18;5.60;;;17.30;99.90;;;;;;5014661;28;20235;-89
2023/08/17 01:06:21;;;;;;;7.15;5.88;;;17.30;99.90;;;;;;5014662;28;20207;-89
2023/08/17 01:08:47;;;;;;;8.35;5.47;;;17.30;99.90;;;;;;5014634;28;20549;-89
2023/08/17 01:11:34;;;;;;;7.43;5.22;;;17.20;99.90;;;;;;5014254;28;20212;-89
2023/08/17 01:14:04;;;;;;;7.18;5.50;;;17.20;99.90;;;;;;5014429;28;20237;-89
2023/08/17 01:17:22;;;;;;;6.65;5.60;;;17.20;99.90;;;;;;5014240;28;20194;-89
2023/08/17 01:19:49;;;;;;;10.65;5.10;;;17.20;99.90;;;;;;5014771;28;20172;-89
2023/08/17 01:22:21;;;;;;;8.73;5.35;;;17.20;99.90;;;;;;5014448;28;20200;-89
2023/08/17 01:24:46;;;;;;;7.63;5.25;;;17.20;99.90;;;;;;5030837;28;20180;-89
2023/08/17 01:27:12;;;;;;;9.82;5.93;;;17.30;99.90;;;;;;5014777;28;20266;-89
2023/08/17 01:29:38;;;;;;;8.27;5.43;;;17.20;99.90;;;;;;5014831;28;20326;-89
2023/08/17 01:32:12;;;;;;;9.40;5.60;;;17.30;99.90;;;;;;5014665;28;20783;-90
2023/08/17 01:34:48;;;;;;;10.07;5.90;;;17.20;99.90;;;;;;5016040;28;20586;-90
2023/08/17 01:37:19;;;;;;;14.80;6.68;;;17.20;99.90;;;;;;5016389;28;20175;-90
2023/08/17 01:39:49;;;;;;;9.82;6.30;;;17.20;99.90;;;;;;5015886;28;20172;-90
2023/08/17 01:42:16;;;;;;;7.47;6.07;;;17.20;99.90;;;;;;5032380;28;20291;-90
2023/08/17 01:44:42;;;;;;;6.78;5.65;;;17.20;99.90;;;;;;5015431;28;20183;-90
2023/08/17 01:47:08;;;;;;;7.75;5.60;;;17.10;99.90;;;;;;5015603;28;20186;-90
2023/08/17 01:49:33;;;;;;;7.07;5.43;;;17.10;99.90;;;;;;5016760;28;20591;-90
2023/08/17 01:52:00;;;;;;;8.98;6.18;;;17.00;99.90;;;;;;5016383;28;20207;-90
2023/08/17 01:54:26;;;;;;;9.73;6.68;;;17.10;99.90;;;;;;5016459;28;20175;-90
2023/08/17 01:56:52;;;;;;;11.55;6.80;;;17.00;99.90;;;;;;5017172;28;20183;-91
2023/08/17 01:59:17;;;;;;;9.13;6.13;;;17.00;99.90;;;;;;5016093;28;20195;-90
2023/08/17 02:01:45;;;;;;;11.57;7.22;;;17.00;99.90;;;;;;5016519;28;20196;-90
2023/08/17 02:04:11;;;;;;;11.35;7.97;;;16.90;99.90;;;;;;5016391;28;20230;-90
2023/08/17 02:06:36;;;;;;;9.50;6.88;;;16.90;99.90;;;;;;5015515;28;20546;-90
2023/08/17 02:09:02;;;;;;;15.75;8.13;;;16.90;99.90;;;;;;5014936;28;20199;-90
2023/08/17 02:11:28;;;;;;;11.52;7.65;;;16.90;99.90;;;;;;5015311;28;20243;-90
2023/08/17 02:13:54;;;;;;;15.98;9.00;;;16.90;99.90;;;;;;5015498;28;20222;-90
2023/08/17 02:16:19;;;;;;;14.82;9.57;;;16.80;99.90;;;;;;5016211;28;20180;-92
2023/08/17 02:18:45;;;;;;;11.45;9.52;;;16.80;99.90;;;;;;5033440;28;20544;-92
2023/08/17 02:21:11;;;;;;;16.05;9.60;;;16.80;99.90;;;;;;5015856;28;20242;-90
2023/08/17 02:23:37;;;;;;;16.23;9.48;;;16.80;99.90;;;;;;5015592;28;20202;-90
2023/08/17 02:26:03;;;;;;;15.15;9.38;;;16.80;99.90;;;;;;5016992;28;20234;-90
2023/08/17 02:28:31;;;;;;;17.25;10.27;;;16.80;99.90;;;;;;5015232;28;20171;-90
2023/08/17 02:30:57;;;;;;;11.98;10.18;;;16.80;99.90;;;;;;5014843;28;20191;-90
2023/08/17 02:33:24;;;;;;;17.15;10.57;;;16.80;99.90;;;;;;5015381;28;20278;-90
2023/08/17 02:35:50;;;;;;;15.63;10.38;;;16.80;99.90;;;;;;5018020;28;20242;-90
2023/08/17 02:38:16;;;;;;;15.02;11.13;;;16.80;99.90;;;;;;5018875;28;20184;-90
2023/08/17 02:40:42;;;;;;;19.23;11.70;;;16.70;99.90;;;;;;5018451;28;20245;-90
2023/08/17 02:43:08;;;;;;;18.17;11.15;;;16.70;99.90;;;;;;5019181;28;20183;-90
2023/08/17 02:45:34;;;;;;;16.30;12.43;;;16.70;99.90;;;;;;5024219;28;20552;-90
2023/08/17 02:48:00;;;;;;;21.48;12.75;;;16.70;99.90;;;;;;5019451;28;20191;-90
2023/08/17 02:50:26;;;;;;;20.40;12.88;;;16.70;99.90;;;;;;5018883;28;20175;-90
2023/08/17 02:52:52;;;;;;;24.35;14.38;;;16.80;99.90;;;;;;5024682;28;20212;-89
2023/08/17 02:55:17;;;;;;;18.45;13.50;;;16.70;99.90;;;;;;5023913;28;20275;-90
2023/08/17 02:57:43;;;;;;;19.90;14.95;;;16.70;99.90;;;;;;5018196;28;20219;-90
2023/08/17 03:00:09;;;;;;;20.60;14.80;;;16.70;99.90;;;;;;5018166;28;20261;-90
2023/08/17 03:02:35;;;;;;;16.75;13.00;;;16.70;99.90;;;;;;5018204;28;20187;-90
2023/08/17 03:05:01;;;;;;;22.10;15.85;;;16.70;99.90;;;;;;5019688;28;20522;-90
2023/08/17 03:07:37;;;;;;;20.52;14.40;;;16.70;99.90;;;;;;5018054;28;20283;-90
2023/08/17 03:10:03;;;;;;;22.67;15.15;;;16.70;99.90;;;;;;5019165;28;20170;-90
2023/08/17 03:12:29;;;;;;;23.45;14.60;;;16.70;99.90;;;;;;5017031;28;20242;-90
2023/08/17 03:14:57;;;;;;;26.23;15.15;;;16.70;99.90;;;;;;5033930;28;20672;-90
2023/08/17 03:17:23;;;;;;;26.65;15.85;;;16.70;99.90;;;;;;5017819;28;20203;-90
2023/08/17 03:19:52;;;;;;;19.98;14.98;;;16.70;99.90;;;;;;5019295;28;20175;-90
2023/08/17 03:22:22;;;;;;;25.55;16.05;;;16.70;99.90;;;;;;5017700;28;20202;-90
2023/08/17 03:24:59;;;;;;;24.58;16.17;;;16.70;99.90;;;;;;5019451;28;20618;-88
2023/08/17 03:27:25;;;;;;;24.85;16.70;;;16.70;99.90;;;;;;5017792;28;20258;-88
2023/08/17 03:29:51;;;;;;;24.13;16.23;;;16.70;99.90;;;;;;5018140;28;20184;-88
2023/08/17 03:32:17;;;;;;;23.45;16.92;;;16.70;99.90;;;;;;5017259;28;20578;-88
2023/08/17 03:34:46;;;;;;;22.98;16.90;;;16.60;99.90;;;;;;5017959;28;20176;-88
2023/08/17 03:37:14;;;;;;;30.20;16.33;;;16.60;99.90;;;;;;5019326;28;20182;-90
2023/08/17 03:39:40;;;;;;;26.73;17.13;;;16.60;99.90;;;;;;5017772;28;20182;-90
2023/08/17 03:42:06;;;;;;;27.73;17.25;;;16.60;99.90;;;;;;5018209;28;20663;-90
2023/08/17 03:44:43;;;;;;;20.85;15.85;;;16.50;99.90;;;;;;5017384;28;20230;-90
2023/08/17 03:47:09;;;;;;;21.10;15.05;;;16.50;99.90;;;;;;5017051;28;20186;-90
2023/08/17 03:49:41;;;;;;;23.75;15.73;;;16.50;99.90;;;;;;5017515;28;20187;-90
2023/08/17 03:52:07;;;;;;;25.60;15.48;;;16.60;99.90;;;;;;5017269;28;20208;-90
2023/08/17 03:54:32;;;;;;;23.80;15.68;;;16.60;99.90;;;;;;5018408;28;20643;-90
2023/08/17 03:57:01;;;;;;;21.38;15.15;;;16.60;99.90;;;;;;5018482;28;20199;-90
2023/08/17 03:59:31;;;;;;;18.88;15.48;;;16.60;99.90;;;;;;5017840;28;20195;-90
2023/08/17 04:01:57;;;;;;;26.65;16.55;;;16.60;99.90;;;;;;5017360;28;20210;-90
2023/08/17 04:04:23;;;;;;;25.70;15.75;;;16.60;99.90;;;;;;5016941;28;20266;-90
2023/08/17 04:06:54;;;;;;;22.95;16.05;;;16.60;99.90;;;;;;5033085;28;20184;-88
2023/08/17 04:09:22;;;;;;;19.40;15.40;;;16.60;99.90;;;;;;5017558;28;20188;-88
2023/08/17 04:11:48;;;;;;;27.80;15.68;;;16.60;99.90;;;;;;5016462;28;20227;-88
2023/08/17 04:14:14;;;;;;;21.35;16.58;;;16.60;99.90;;;;;;5017485;28;20570;-88
2023/08/17 04:16:43;;;;;;;22.92;16.80;;;16.60;99.90;;;;;;5016709;28;20199;-88
2023/08/17 04:19:09;;;;;;;26.95;16.60;;;16.60;99.90;;;;;;5015965;28;20270;-88
2023/08/17 04:21:35;;;;;;;28.05;17.98;;;16.60;99.90;;;;;;5015668;28;20219;-88
2023/08/17 04:24:01;;;;;;;27.40;18.85;;;16.60;99.90;;;;;;5017968;28;20194;-88
2023/08/17 04:26:27;;;;;;;23.23;16.15;;;16.50;99.90;;;;;;5017433;28;20188;-88
2023/08/17 04:29:21;;;;;;;30.05;18.67;;;16.50;99.90;;;;;;5015755;28;20187;-88
2023/08/17 04:31:47;;;;;;;29.25;19.55;;;16.50;99.90;;;;;;5015582;28;20207;-88
2023/08/17 04:34:15;;;;;;;27.67;19.10;;;16.50;99.90;;;;;;5015807;28;20219;-88
2023/08/17 04:36:44;;;;;;;27.98;17.88;;;16.50;99.90;;;;;;5014888;28;20191;-88
2023/08/17 04:39:14;;;;;;;32.80;19.60;;;16.50;99.90;;;;;;5015270;28;20176;-88
2023/08/17 04:41:42;;;;;;;29.52;17.67;;;16.50;99.90;;;;;;5015463;28;20619;-88
2023/08/17 04:44:08;;;;;;;29.52;19.50;;;16.50;99.90;;;;;;5015626;28;20262;-88
2023/08/17 04:46:35;;;;;;;26.13;18.13;;;16.50;99.90;;;;;;5031612;28;20207;-88
2023/08/17 04:49:03;;;;;;;22.30;16.38;;;16.50;99.90;;;;;;5014614;28;20206;-88
2023/08/17 04:51:34;;;;;;;28.85;17.83;;;16.50;99.90;;;;;;5015234;28;20229;-88
2023/08/17 04:54:02;;;;;;;28.27;18.65;;;16.50;99.90;;;;;;5015904;28;20671;-88
2023/08/17 04:56:28;;;;;;;28.23;18.88;;;16.60;99.90;;;;;;5015036;28;20188;-88
2023/08/17 04:58:57;;;;;;;20.52;16.75;;;16.60;99.90;;;;;;5013959;28;20199;-89
2023/08/17 05:01:23;;;;;;;20.83;17.40;;;16.60;99.90;;;;;;5015435;28;20223;-88
2023/08/17 05:03:48;;;;;;;27.05;17.75;;;16.70;99.90;;;;;;5014766;28;20218;-89
2023/08/17 05:06:14;;;;;;;27.33;19.90;;;16.70;99.90;;;;;;5014712;28;20179;-89
2023/08/17 05:08:40;;;;;;;30.02;19.10;;;16.60;99.90;;;;;;5014365;28;20180;-89
2023/08/17 05:11:05;;;;;;;29.35;18.17;;;16.60;99.90;;;;;;5014353;28;20196;-90
2023/08/17 05:13:31;;;;;;;34.15;20.60;;;16.70;99.90;;;;;;5014638;28;20204;-90
2023/08/17 05:15:57;;;;;;;36.08;20.60;;;16.70;99.90;;;;;;5016444;28;20180;-88
2023/08/17 05:18:22;;;;;;;33.45;21.00;;;16.70;99.90;;;;;;5014289;28;20602;-88
2023/08/17 05:20:48;;;;;;;30.83;20.30;;;16.70;99.90;;;;;;5014228;28;20199;-88
2023/08/17 05:23:14;;;;;;;22.02;17.83;;;16.70;99.90;;;;;;5014967;28;20185;-88
2023/08/17 05:25:40;;;;;;;28.90;19.83;;;16.70;99.90;;;;;;5015407;28;20275;-88
2023/08/17 05:28:05;;;;;;;32.75;19.67;;;16.70;99.90;;;;;;5014400;28;20175;-89
2023/08/17 05:30:32;;;;;;;32.92;20.98;;;16.70;99.90;;;;;;5015768;28;20286;-88
2023/08/17 05:32:58;;;;;;;26.50;17.75;;;16.70;99.90;;;;;;5014920;28;20574;-88
2023/08/17 05:35:25;;;;;;;31.80;21.20;;;16.70;99.90;;;;;;5014599;28;20183;-88
2023/08/17 05:37:51;;;;;;;38.72;21.60;;;16.70;99.90;;;;;;5015470;28;20184;-88
2023/08/17 05:40:17;;;;;;;33.83;21.48;;;16.70;99.90;;;;;;5013869;28;20241;-88
2023/08/17 05:42:43;;;;;;;41.38;22.85;;;16.60;99.90;;;;;;5014086;28;20202;-89
2023/08/17 05:45:09;;;;;;;33.30;21.92;;;16.70;99.90;;;;;;5014271;28;20688;-89
2023/08/17 05:47:35;;;;;;;33.42;21.20;;;16.70;99.90;;;;;;5013576;28;20180;-89
2023/08/17 05:50:01;;;;;;;27.90;18.65;;;16.60;99.90;;;;;;5030218;28;20190;-88
2023/08/17 05:52:26;;;;;;;28.90;18.35;;;16.70;99.90;;;;;;5013477;28;20216;-89
2023/08/17 05:54:52;;;;;;;32.75;20.27;;;16.70;99.90;;;;;;5014005;28;20183;-88
2023/08/17 05:57:18;;;;;;;28.88;20.20;;;16.80;99.90;;;;;;5030694;28;20183;-88
2023/08/17 05:59:43;;;;;;;36.55;21.98;;;16.80;99.90;;;;;;5013567;28;20656;-88
2023/08/17 06:02:09;;;;;;;24.58;19.20;;;16.70;99.90;;;;;;5013788;28;20294;-88
2023/08/17 06:04:35;;;;;;;32.00;20.77;;;16.70;99.90;;;;;;5015900;28;20203;-87
2023/08/17 06:07:01;;;;;;;29.05;20.42;;;16.70;99.90;;;;;;5015801;28;20275;-88
2023/08/17 06:09:27;;;;;;;32.42;19.63;;;16.70;99.90;;;;;;5014629;28;20211;-89
2023/08/17 06:11:52;;;;;;;29.98;20.38;;;16.80;99.90;;;;;;5013313;28;20587;-88
2023/08/17 06:14:18;;;;;;;32.75;20.67;;;16.80;99.90;;;;;;5013465;28;20641;-88
2023/08/17 06:16:44;;;;;;;27.58;19.45;;;16.80;99.90;;;;;;5013706;28;20184;-88
2023/08/17 06:19:09;;;;;;;39.70;23.52;;;16.90;99.90;;;;;;5013675;28;20180;-88
2023/08/17 06:21:35;;;;;;;33.28;20.75;;;16.90;99.90;;;;;;5014139;28;20207;-88
2023/08/17 06:24:01;;;;;;;40.78;23.77;;;16.90;99.90;;;;;;5015382;28;20233;-88
2023/08/17 06:26:26;;;;;;;30.38;19.65;;;16.90;99.90;;;;;;5014275;28;20215;-88
2023/08/17 06:28:52;;;;;;;31.95;20.55;;;16.90;99.90;;;;;;5013656;28;20183;-88
2023/08/17 06:31:18;;;;;;;36.90;22.48;;;16.90;99.90;;;;;;5015349;28;20195;-88
2023/08/17 06:33:44;;;;;;;33.72;22.92;;;16.90;99.90;;;;;;5013504;28;20180;-87
2023/08/17 06:36:13;;;;;;;44.08;25.33;;;16.90;99.90;;;;;;5013521;28;20176;-87
2023/08/17 06:38:38;;;;;;;37.17;26.10;;;16.90;99.90;;;;;;5014550;28;20175;-87
2023/08/17 06:41:04;;;;;;;39.85;25.80;;;16.80;99.90;;;;;;5013376;28;20565;-88
2023/08/17 06:43:30;;;;;;;37.25;26.75;;;16.80;99.90;;;;;;5013678;28;20246;-88
2023/08/17 06:45:56;;;;;;;48.78;29.63;;;16.70;99.90;;;;;;5029777;28;20199;-88
2023/08/17 06:48:22;;;;;;;49.72;31.13;;;16.70;99.90;;;;;;5013139;28;20188;-88
2023/08/17 06:50:48;;;;;;;46.80;30.17;;;16.70;99.90;;;;;;5029754;28;20707;-87
2023/08/17 06:53:13;;;;;;;50.53;29.23;;;16.80;99.90;;;;;;5013828;28;20203;-87
2023/08/17 06:55:39;;;;;;;42.63;25.35;;;16.80;99.90;;;;;;5014323;28;20183;-87
2023/08/17 06:58:05;;;;;;;34.72;22.98;;;16.80;99.90;;;;;;5029525;28;20176;-87
2023/08/17 07:00:31;;;;;;;38.28;23.45;;;16.80;99.90;;;;;;5012765;28;20691;-88
2023/08/17 07:02:57;;;;;;;40.75;25.38;;;16.80;99.90;;;;;;5013121;28;20258;-87
2023/08/17 07:05:26;;;;;;;35.97;23.30;;;16.80;99.90;;;;;;5013013;28;20180;-87
2023/08/17 07:07:52;;;;;;;41.78;26.38;;;16.90;99.90;;;;;;5013152;28;20180;-87
2023/08/17 07:10:19;;;;;;;41.45;25.35;;;16.90;99.90;;;;;;5013088;28;20246;-87
2023/08/17 07:12:45;;;;;;;37.03;22.55;;;16.80;99.90;;;;;;5014115;28;20204;-87
2023/08/17 07:15:12;;;;;;;37.67;23.80;;;16.80;99.90;;;;;;5029995;28;20207;-87
2023/08/17 07:17:38;;;;;;;40.70;24.48;;;16.80;99.90;;;;;;5013226;28;20172;-87
2023/08/17 07:20:05;;;;;;;38.67;23.65;;;16.80;99.90;;;;;;5012849;28;20186;-87
2023/08/17 07:22:31;;;;;;;37.03;23.20;;;16.80;99.90;;;;;;5014626;28;20210;-87
2023/08/17 07:24:57;;;;;;;39.58;24.65;;;16.90;99.90;;;;;;5016356;28;20176;-87
2023/08/17 07:27:23;;;;;;;36.40;21.63;;;16.90;99.90;;;;;;5016079;28;20543;-87
2023/08/17 07:29:48;;;;;;;34.40;22.42;;;16.90;99.90;;;;;;5016067;28;20187;-87
2023/08/17 07:32:14;;;;;;;38.50;24.40;;;16.90;99.90;;;;;;5017190;28;20207;-87
2023/08/17 07:34:40;;;;;;;30.23;20.92;;;16.90;99.90;;;;;;5016404;28;20179;-88
2023/08/17 07:37:06;;;;;;;40.88;25.73;;;16.90;99.90;;;;;;5016410;28;20267;-88
2023/08/17 07:39:33;;;;;;;36.67;23.65;;;17.00;99.90;;;;;;5016112;28;20554;-88
2023/08/17 07:41:59;;;;;;;39.80;23.40;;;16.90;99.90;;;;;;5016335;28;20257;-88
2023/08/17 07:44:24;;;;;;;37.35;24.17;;;17.00;99.90;;;;;;5016811;28;20702;-88
2023/08/17 07:46:50;;;;;;;38.58;24.73;;;17.10;99.90;;;;;;5016331;28;20667;-88
2023/08/17 07:49:16;;;;;;;45.55;24.85;;;17.20;99.90;;;;;;5033476;28;20559;-88
2023/08/17 07:51:49;;;;;;;42.35;24.52;;;17.20;99.90;;;;;;5017292;28;20266;-88
2023/08/17 07:54:15;;;;;;;44.40;24.33;;;17.20;99.90;;;;;;5018148;28;20157;-88
2023/08/17 07:56:41;;;;;;;32.85;20.42;;;17.20;99.90;;;;;;5018302;28;20720;-88
2023/08/17 07:59:06;;;;;;;34.03;22.58;;;17.20;99.90;;;;;;5018340;28;20202;-88
2023/08/17 08:01:32;;;;;;;35.80;23.10;;;17.30;99.90;;;;;;5020172;28;20219;-87
2023/08/17 08:04:31;;;;;;;33.50;22.60;;;17.30;99.90;;;;;;5018285;28;20211;-88
2023/08/17 08:24:41;;;;;;;36.88;20.83;;;17.60;99.90;;;;;;5017291;28;20577;-88
2023/08/17 08:41:05;;;;;;;32.15;19.80;;;17.80;99.90;;;;;;4880641;29;20234;-91
2023/08/17 08:43:31;;;;;;;32.63;19.80;;;17.70;99.90;;;;;;4875021;28;20191;-87
2023/08/17 08:45:59;;;;;;;27.45;18.25;;;17.70;99.90;;;;;;4994659;28;20239;-87
2023/08/17 08:48:26;;;;;;;28.30;19.70;;;17.70;99.90;;;;;;5013392;28;20255;-87
2023/08/17 08:50:55;;;;;;;31.13;19.73;;;17.70;99.90;;;;;;5014923;28;20207;-88
2023/08/17 08:53:28;;;;;;;33.17;19.60;;;17.70;99.90;;;;;;5014520;28;20283;-87
2023/08/17 08:56:45;;;;;;;34.00;21.90;;;17.80;99.90;;;;;;5015762;28;20165;-88
2023/08/17 08:59:11;;;;;;;34.22;20.17;;;17.80;99.90;;;;;;5014521;28;20199;-88
2023/08/17 09:01:38;;;;;;;25.65;17.40;;;17.70;99.90;;;;;;5015060;28;20214;-87
2023/08/17 09:04:07;;;;;;;27.60;17.55;;;17.70;99.90;;;;;;5014789;28;20180;-87
2023/08/17 09:06:34;;;;;;;35.95;20.15;;;17.80;99.90;;;;;;5014447;28;20254;-87
2023/08/17 09:09:02;;;;;;;30.13;19.42;;;17.80;99.90;;;;;;5014582;28;20568;-87
2023/08/17 09:11:47;;;;;;;25.45;17.67;;;17.80;99.90;;;;;;5014494;28;20215;-87
2023/08/17 09:14:12;;;;;;;27.48;17.55;;;17.90;99.90;;;;;;5014635;28;20206;-87
2023/08/17 09:16:52;;;;;;;26.90;17.73;;;17.90;99.90;;;;;;5014902;28;20180;-90
2023/08/17 09:19:20;;;;;;;26.50;16.77;;;18.00;99.90;;;;;;5012140;28;20641;-86
2023/08/17 09:21:46;;;;;;;24.88;16.63;;;18.10;99.90;;;;;;5014344;28;20199;-88
2023/08/17 09:24:15;;;;;;;24.45;16.33;;;18.30;99.90;;;;;;5015764;28;20648;-87
2023/08/17 09:26:41;;;;;;;24.65;17.65;;;18.40;99.90;;;;;;5014289;28;20187;-88
2023/08/17 09:29:18;;;;;;;23.27;16.55;;;18.50;99.90;;;;;;5014808;28;20598;-88
2023/08/17 09:31:44;;;;;;;21.20;14.82;;;18.50;99.90;;;;;;5014538;28;20571;-88
2023/08/17 09:34:10;;;;;;;23.42;15.63;;;18.50;99.90;;;;;;5015762;28;20179;-86
2023/08/17 09:36:48;;;;;;;24.80;16.30;;;18.60;99.90;;;;;;5014428;28;20176;-89
2023/08/17 09:40:04;;;;;;;24.38;16.65;;;18.70;99.90;;;;;;5013270;28;20180;-89
2023/08/17 09:55:45;;;;;;;18.38;13.60;;;18.50;99.90;;;;;;5037072;28;20271;-77
2023/08/17 09:58:15;;;;;;;21.02;13.48;;;18.60;99.90;;;;;;5022411;28;20167;-78
2023/08/17 10:00:46;;;;;;;21.85;15.15;;;18.50;99.90;;;;;;5037379;28;20167;-78
2023/08/17 10:03:13;;;;;;;20.95;14.90;;;18.50;99.90;;;;;;5022345;28;20203;-79
2023/08/17 10:05:42;;;;;;;16.17;13.10;;;18.50;99.90;;;;;;5018564;28;20199;-79
2023/08/17 10:08:10;;;;;;;21.35;15.30;;;18.60;99.90;;;;;;5034981;28;20171;-78
2023/08/17 10:10:40;;;;;;;20.80;14.18;;;18.50;99.90;;;;;;5017397;28;20747;-79
2023/08/17 10:13:13;;;;;;;18.95;13.45;;;18.50;99.90;;;;;;5036334;28;20250;-79
2023/08/17 10:15:51;;;;;;;12.38;9.80;;;18.50;99.90;;;;;;5039049;28;20171;-78
2023/08/17 10:18:42;;;;;;;16.85;11.93;;;18.60;99.90;;;;;;5038748;28;20233;-77
2023/08/17 10:21:32;;;;;;;17.23;12.15;;;18.70;99.90;;;;;;5016446;28;20167;-78
2023/08/17 10:23:58;;;;;;;14.77;10.88;;;18.70;99.90;;;;;;5016476;28;20211;-78
2023/08/17 10:26:25;;;;;;;20.42;13.77;;;18.90;99.90;;;;;;5017807;28;20272;-78
2023/08/17 10:28:52;;;;;;;17.40;12.40;;;18.90;99.90;;;;;;5016638;28;20740;-78
2023/08/17 10:31:18;;;;;;;19.33;12.93;;;19.00;99.90;;;;;;5016057;28;20229;-77
2023/08/17 10:33:47;;;;;;;18.23;12.40;;;19.10;99.90;;;;;;5033865;28;20686;-77
2023/08/17 10:36:14;;;;;;;16.17;10.98;;;19.20;99.90;;;;;;5017152;28;20647;-78
2023/08/17 10:38:40;;;;;;;12.98;9.90;;;19.20;99.90;;;;;;5036375;28;20189;-77
2023/08/17 10:41:14;;;;;;;14.02;10.57;;;19.20;99.90;;;;;;5035406;28;20206;-78
2023/08/17 10:43:57;;;;;;;16.13;10.30;;;19.10;99.90;;;;;;5033798;28;20277;-77
2023/08/17 10:46:33;;;;;;;16.45;10.00;;;19.00;99.90;;;;;;5034848;28;20628;-77
2023/08/17 10:49:05;;;;;;;11.90;9.05;;;19.10;99.90;;;;;;5033908;28;20155;-78
2023/08/17 10:51:32;;;;;;;14.73;10.48;;;19.10;99.90;;;;;;5035105;28;20156;-77
2023/08/17 10:54:04;;;;;;;11.63;8.82;;;19.00;99.90;;;;;;5033512;28;20211;-77
2023/08/17 10:56:30;;;;;;;8.27;7.30;;;19.00;99.90;;;;;;5018346;28;20655;-77
2023/08/17 10:59:02;;;;;;;12.20;8.13;;;19.10;99.90;;;;;;5039536;28;20250;-78
2023/08/17 11:01:40;;;;;;;12.15;8.38;;;19.20;99.90;;;;;;5038969;28;20168;-78
2023/08/17 11:04:17;;;;;;;11.90;8.80;;;19.20;99.90;;;;;;5020049;28;20209;-77
2023/08/17 11:06:46;;;;;;;10.65;9.05;;;19.30;99.90;;;;;;5019930;28;20171;-78
2023/08/17 11:09:12;;;;;;;10.48;8.50;;;19.30;99.90;;;;;;5019761;28;20179;-78
2023/08/17 11:11:38;;;;;;;15.13;10.90;;;19.20;99.90;;;;;;5020652;28;20181;-77
2023/08/17 11:14:04;;;;;;;18.45;11.80;;;19.10;99.90;;;;;;5019461;28;20218;-77
2023/08/17 11:16:30;;;;;;;15.63;10.20;;;18.90;99.90;;;;;;5019084;28;20226;-77
2023/08/17 11:18:58;;;;;;;15.68;12.23;;;18.80;99.90;;;;;;5019121;28;20183;-77
2023/08/17 11:21:24;;;;;;;11.27;8.85;;;18.80;99.90;;;;;;5019240;28;20179;-78
2023/08/17 11:23:50;;;;;;;11.75;8.52;;;18.90;99.90;;;;;;5036519;28;20662;-77
2023/08/17 11:26:17;;;;;;;14.63;11.23;;;18.90;99.90;;;;;;5015808;28;20195;-77
2023/08/17 11:28:44;;;;;;;14.85;11.88;;;18.90;99.90;;;;;;5015673;28;20180;-77
2023/08/17 11:31:11;;;;;;;12.88;9.35;;;18.90;99.90;;;;;;5015833;28;20652;-78
2023/08/17 11:33:38;;;;;;;18.52;13.80;;;18.90;99.90;;;;;;5016888;28;20725;-78
2023/08/17 11:36:06;;;;;;;18.90;14.23;;;18.90;99.90;;;;;;5017091;28;20176;-78
2023/08/17 11:38:41;;;;;;;17.98;12.73;;;18.90;99.90;;;;;;5017261;28;20250;-78
2023/08/17 11:41:10;;;;;;;18.67;15.13;;;18.90;99.90;;;;;;5015332;28;20262;-76
2023/08/17 11:43:36;;;;;;;21.48;16.10;;;18.90;99.90;;;;;;5016636;28;20283;-78
2023/08/17 11:46:03;;;;;;;19.65;15.45;;;18.80;99.90;;;;;;5016566;28;20186;-77
2023/08/17 11:48:30;;;;;;;19.60;13.75;;;18.80;99.90;;;;;;5015358;28;20533;-77
2023/08/17 11:50:55;;;;;;;12.45;9.88;;;18.80;99.90;;;;;;5015508;28;20188;-78
2023/08/17 11:53:22;;;;;;;16.85;12.77;;;19.00;99.90;;;;;;5015584;28;20211;-78
2023/08/17 11:55:48;;;;;;;14.50;11.35;;;19.00;99.90;;;;;;5028733;28;20211;-77
2023/08/17 11:58:14;;;;;;;13.50;10.93;;;19.10;99.90;;;;;;5036633;28;20274;-77
2023/08/17 12:00:44;;;;;;;16.00;11.88;;;19.20;99.90;;;;;;5037111;28;20599;-78
2023/08/17 12:03:13;;;;;;;12.75;10.93;;;19.30;99.90;;;;;;5019640;28;20206;-77
2023/08/17 12:05:39;;;;;;;14.75;10.65;;;19.30;99.90;;;;;;5018136;28;20249;-77
2023/08/17 12:08:07;;;;;;;11.82;9.25;;;19.30;99.90;;;;;;5017235;28;20591;-77
2023/08/17 12:10:34;;;;;;;15.73;11.48;;;19.40;99.90;;;;;;5035562;28;20639;-77
2023/08/17 12:13:01;;;;;;;15.88;11.30;;;19.40;99.90;;;;;;5035228;28;20576;-77
2023/08/17 12:15:35;;;;;;;14.27;10.20;;;19.50;99.90;;;;;;5035840;28;20624;-77
2023/08/17 12:18:03;;;;;;;11.13;8.63;;;19.50;99.90;;;;;;5035447;28;20190;-77
2023/08/17 12:20:29;;;;;;;12.80;10.07;;;19.60;99.90;;;;;;5035456;28;20574;-77
2023/08/17 12:22:58;;;;;;;11.38;9.48;;;19.60;99.90;;;;;;5035526;28;20256;-77
2023/08/17 12:25:25;;;;;;;11.35;8.57;;;19.60;99.90;;;;;;5017603;28;20774;-77
2023/08/17 12:27:51;;;;;;;13.30;8.80;;;19.60;99.90;;;;;;5017413;28;20717;-77
2023/08/17 12:30:36;;;;;;;14.45;10.50;;;19.70;99.90;;;;;;5035413;28;20175;-77
2023/08/17 12:33:02;;;;;;;10.35;8.02;;;19.70;99.90;;;;;;5035065;28;20713;-77
2023/08/17 12:35:30;;;;;;;14.52;11.18;;;19.70;99.90;;;;;;5017357;28;20663;-77
2023/08/17 12:37:56;;;;;;;11.38;8.75;;;19.70;99.90;;;;;;5017539;28;20252;-77
2023/08/17 12:40:24;;;;;;;11.68;9.20;;;19.80;99.90;;;;;;5017522;28;20718;-77
2023/08/17 12:42:50;;;;;;;9.73;7.88;;;19.80;99.90;;;;;;5019139;28;20550;-78
2023/08/17 12:45:17;;;;;;;13.02;10.13;;;19.80;99.90;;;;;;5018986;28;20187;-78
2023/08/17 12:47:43;;;;;;;13.00;9.30;;;19.80;99.90;;;;;;5021016;28;20179;-78
2023/08/17 12:50:09;;;;;;;10.95;8.05;;;19.80;99.90;;;;;;5021774;28;20182;-78
2023/08/17 12:52:35;;;;;;;13.75;10.25;;;19.80;99.90;;;;;;5038783;28;20211;-77
2023/08/17 12:55:01;;;;;;;15.35;10.55;;;19.70;99.90;;;;;;5020553;28;20206;-77
2023/08/17 12:57:26;;;;;;;14.18;11.35;;;19.70;99.90;;;;;;5037373;28;20175;-77
2023/08/17 12:59:53;;;;;;;15.88;11.55;;;19.70;99.90;;;;;;5019870;28;20249;-78
2023/08/17 13:02:20;;;;;;;16.85;11.65;;;19.70;99.90;;;;;;5037431;28;20247;-78
2023/08/17 13:04:46;;;;;;;12.32;9.48;;;19.70;99.90;;;;;;5037970;28;20206;-78
2023/08/17 13:07:12;;;;;;;12.35;10.68;;;19.70;99.90;;;;;;5035955;28;20175;-77
2023/08/17 13:09:38;;;;;;;11.02;8.88;;;19.70;99.90;;;;;;5016962;28;20193;-77
2023/08/17 13:12:04;;;;;;;16.55;11.20;;;19.80;99.90;;;;;;5016453;28;20626;-77
2023/08/17 13:14:30;;;;;;;10.27;8.32;;;19.70;99.90;;;;;;5016945;28;20593;-77
2023/08/17 13:16:57;;;;;;;12.18;10.18;;;19.80;99.90;;;;;;5034335;28;20192;-77
2023/08/17 13:19:23;;;;;;;10.82;8.73;;;19.80;99.90;;;;;;5015739;28;20179;-77